Time;durP1;ratioP1;P1;durP2;ratioP2;P2;SDS_P1;SDS_P2;PMS_P1;PMS_P2;Temp;Humidity;BMP_temperature;BMP_pressure;BME280_temperature;BME280_humidity;BME280_pressure;Samples;Min_cycle;Max_cycle;Signal;HPM_P1;HPM_P2
2023/08/03 00:00:28;;;;;;;11.93;7.47;;;;;;;22.59;100.00;100748.47;2507057;23;20199;-64
2023/08/03 00:01:28;;;;;;;10.80;7.63;;;;;;;22.57;100.00;100745.38;2507340;23;20164;-64
2023/08/03 00:02:33;;;;;;;9.00;7.30;;;;;;;21.95;100.00;100660.31;2507604;23;20204;-65
2023/08/03 00:03:34;;;;;;;10.33;7.37;;;;;;;22.51;100.00;100741.78;2520052;23;20135;-64
2023/08/03 00:04:34;;;;;;;9.57;6.87;;;;;;;22.16;100.00;100693.44;2520085;23;20151;-65
2023/08/03 00:05:35;;;;;;;7.53;6.83;;;;;;;22.52;100.00;100746.16;2520362;23;20207;-64
2023/08/03 00:06:35;;;;;;;7.07;6.37;;;;;;;22.24;100.00;100702.19;2520502;23;20199;-64
2023/08/03 00:07:35;;;;;;;8.70;6.93;;;;;;;22.52;100.00;100743.31;2507190;23;20159;-64
2023/08/03 00:08:36;;;;;;;7.93;6.93;;;;;;;22.11;100.00;100677.25;2507443;23;20623;-64
2023/08/03 00:09:36;;;;;;;7.40;6.53;;;;;;;22.53;100.00;100742.06;2520092;23;20158;-64
2023/08/03 00:10:37;;;;;;;8.63;7.17;;;;;;;22.54;100.00;100749.25;2519590;23;20151;-64
2023/08/03 00:11:38;;;;;;;7.03;6.33;;;;;;;22.56;100.00;100745.91;2520381;23;20179;-64
2023/08/03 00:12:38;;;;;;;7.97;6.97;;;;;;;22.55;100.00;100747.16;2520291;23;20183;-64
2023/08/03 00:13:38;;;;;;;7.97;6.47;;;;;;;22.54;100.00;100742.81;2507308;23;20159;-64
2023/08/03 00:14:39;;;;;;;7.77;6.57;;;;;;;22.55;100.00;100755.66;2507661;23;20156;-64
2023/08/03 00:15:39;;;;;;;8.23;6.60;;;;;;;22.24;100.00;100708.59;2520328;23;20151;-64
2023/08/03 00:16:40;;;;;;;8.63;7.33;;;;;;;22.03;100.00;100687.53;2520253;23;20234;-65
2023/08/03 00:17:41;;;;;;;8.17;6.27;;;;;;;22.49;100.00;100757.69;2518941;23;20151;-64
2023/08/03 00:18:41;;;;;;;8.73;7.03;;;;;;;22.48;100.00;100754.13;2520062;23;20210;-65
2023/08/03 00:19:42;;;;;;;9.07;6.57;;;;;;;22.47;100.00;100754.63;2520308;23;20159;-64
2023/08/03 00:20:42;;;;;;;8.03;7.03;;;;;;;22.50;100.00;100757.19;2506962;23;20160;-64
2023/08/03 00:21:42;;;;;;;8.70;6.50;;;;;;;22.45;100.00;100751.53;2507904;23;20175;-64
2023/08/03 00:22:46;;;;;;;9.33;6.57;;;;;;;22.53;100.00;100759.00;2519984;23;20261;-65
2023/08/03 00:23:46;;;;;;;11.30;6.50;;;;;;;22.56;100.00;100757.97;2520261;23;20553;-64
2023/08/03 00:24:48;;;;;;;7.40;6.50;;;;;;;21.99;100.00;100660.81;2507547;23;20172;-65
2023/08/03 00:25:49;;;;;;;7.53;6.53;;;;;;;22.36;100.00;100724.28;2507935;23;20239;-65
2023/08/03 00:26:49;;;;;;;7.30;6.60;;;;;;;22.58;100.00;100751.81;2519989;23;20155;-64
2023/08/03 00:27:49;;;;;;;9.07;6.50;;;;;;;22.58;100.00;100755.41;2519968;23;20274;-64
2023/08/03 00:28:50;;;;;;;7.50;6.50;;;;;;;22.60;100.00;100758.50;2520146;23;20162;-64
2023/08/03 00:29:50;;;;;;;7.43;6.50;;;;;;;22.59;100.00;100753.34;2520243;23;20162;-65
2023/08/03 00:30:51;;;;;;;8.67;6.27;;;;;;;22.60;100.00;100757.72;2519434;23;20395;-65
2023/08/03 00:31:51;;;;;;;8.33;6.70;;;;;;;22.58;100.00;100758.25;2519844;23;20206;-64
2023/08/03 00:32:51;;;;;;;6.93;6.00;;;;;;;22.59;100.00;100754.13;2520370;23;20163;-65
2023/08/03 00:33:52;;;;;;;7.23;6.20;;;;;;;22.59;100.00;100751.31;2519831;23;20190;-64
2023/08/03 00:34:53;;;;;;;7.33;6.30;;;;;;;22.42;100.00;100735.59;2520430;23;20159;-65
2023/08/03 00:35:53;;;;;;;7.30;6.47;;;;;;;21.94;100.00;100672.84;2520975;23;20151;-64
2023/08/03 00:36:54;;;;;;;6.90;6.20;;;;;;;22.48;100.00;100747.69;2521357;23;20617;-65
2023/08/03 00:37:54;;;;;;;7.13;6.17;;;;;;;22.04;100.00;100683.41;2520794;23;20602;-64
2023/08/03 00:38:54;;;;;;;7.30;6.33;;;;;;;22.43;100.00;100734.31;2520749;23;20179;-64
2023/08/03 00:39:55;;;;;;;7.63;6.60;;;;;;;22.26;100.00;100708.84;2521224;23;20166;-65
2023/08/03 00:40:55;;;;;;;8.43;6.40;;;;;;;22.45;100.00;100743.06;2519723;23;20214;-65
2023/08/03 00:41:56;;;;;;;8.20;6.30;;;;;;;21.94;100.00;100658.75;2521260;23;20194;-65
2023/08/03 00:42:57;;;;;;;7.87;6.40;;;;;;;22.45;100.00;100745.88;2508374;23;20159;-65
2023/08/03 00:43:58;;;;;;;7.37;6.03;;;;;;;22.44;100.00;100747.94;2508381;23;20219;-64
2023/08/03 00:44:58;;;;;;;8.07;6.23;;;;;;;22.46;100.00;100745.38;2521295;23;20625;-65
2023/08/03 00:45:59;;;;;;;9.13;6.73;;;;;;;22.45;100.00;100746.66;2520414;23;20167;-65
2023/08/03 00:46:59;;;;;;;10.47;6.43;;;;;;;22.45;100.00;100743.06;2521189;23;20178;-65
2023/08/03 00:48:00;;;;;;;9.23;6.70;;;;;;;22.38;100.00;100744.31;2520547;23;20155;-65
2023/08/03 00:49:01;;;;;;;13.90;6.80;;;;;;;22.34;100.00;100740.97;2520892;23;20186;-65
2023/08/03 00:50:02;;;;;;;11.90;6.70;;;;;;;22.05;100.00;100692.66;2520831;23;20155;-64
2023/08/03 00:51:03;;;;;;;10.50;6.80;;;;;;;22.38;100.00;100737.88;2519986;23;20154;-64
2023/08/03 00:52:04;;;;;;;10.00;6.83;;;;;;;22.36;100.00;100740.47;2520546;23;20497;-64
2023/08/03 00:53:04;;;;;;;9.17;6.63;;;;;;;21.88;100.00;100672.06;2520731;23;20185;-65
2023/08/03 00:54:08;;;;;;;7.60;6.20;;;;;;;22.35;100.00;100741.72;2520953;23;20163;-65
2023/08/03 00:55:08;;;;;;;9.53;6.87;;;;;;;22.35;100.00;100734.03;2521267;23;20162;-64
2023/08/03 00:56:08;;;;;;;9.10;6.90;;;;;;;22.33;100.00;100730.97;2520963;23;20154;-64
2023/08/03 00:57:09;;;;;;;7.47;6.40;;;;;;;22.26;100.00;100739.91;2521098;23;20179;-64
2023/08/03 00:58:09;;;;;;;8.30;6.30;;;;;;;22.26;100.00;100736.34;2520320;23;20155;-65
2023/08/03 00:59:11;;;;;;;11.70;6.90;;;;;;;22.28;100.00;100745.06;2520910;23;20159;-64
2023/08/03 01:00:11;;;;;;;11.00;7.20;;;;;;;21.89;100.00;100676.44;2507014;23;20662;-64
2023/08/03 01:01:12;;;;;;;12.47;8.10;;;;;;;21.93;100.00;100697.50;2496031;23;20236;-64
2023/08/03 01:02:12;;;;;;;10.60;6.50;;;;;;;21.88;100.00;100674.91;2508159;23;20164;-65
2023/08/03 01:03:13;;;;;;;9.87;6.90;;;;;;;22.30;100.00;100736.84;2520965;23;20162;-65
2023/08/03 01:04:13;;;;;;;12.13;7.23;;;;;;;21.94;100.00;100693.41;2521181;23;20161;-64
2023/08/03 01:05:14;;;;;;;7.83;6.17;;;;;;;21.99;100.00;100703.94;2508283;23;20631;-64
2023/08/03 01:06:14;;;;;;;9.00;6.20;;;;;;;21.55;100.00;100632.47;2508476;23;20208;-64
2023/08/03 01:07:15;;;;;;;8.50;5.97;;;;;;;22.26;100.00;100727.88;2520534;23;20513;-64
2023/08/03 01:08:15;;;;;;;6.83;6.23;;;;;;;22.31;100.00;100739.16;2520844;23;20202;-64
2023/08/03 01:09:15;;;;;;;8.63;6.90;;;;;;;22.31;100.00;100744.03;2520944;23;20155;-64
2023/08/03 01:10:16;;;;;;;7.70;6.90;;;;;;;22.29;100.00;100749.41;2520360;23;20179;-64
2023/08/03 01:11:16;;;;;;;9.40;7.00;;;;;;;22.20;100.00;100741.16;2520668;23;20628;-65
2023/08/03 01:12:17;;;;;;;7.00;6.30;;;;;;;22.23;100.00;100743.78;2521038;23;20151;-64
2023/08/03 01:13:20;;;;;;;7.47;6.63;;;;;;;22.22;100.00;100752.75;2521020;23;20609;-64
2023/08/03 01:14:20;;;;;;;7.40;6.70;;;;;;;22.22;100.00;100745.03;2520282;23;20186;-65
2023/08/03 01:15:21;;;;;;;7.73;6.73;;;;;;;22.22;100.00;100750.66;2521062;23;20601;-64
2023/08/03 01:16:23;;;;;;;6.93;6.23;;;;;;;22.23;100.00;100743.78;2520859;23;20157;-65
2023/08/03 01:17:25;;;;;;;6.97;6.10;;;;;;;22.27;100.00;100746.34;2520603;23;20147;-64
2023/08/03 01:18:25;;;;;;;7.03;6.33;;;;;;;22.27;100.00;100757.63;2521138;23;20151;-65
2023/08/03 01:19:26;;;;;;;6.93;6.33;;;;;;;21.76;100.00;100670.50;2520600;23;20182;-64
2023/08/03 01:20:27;;;;;;;6.03;5.53;;;;;;;22.13;100.00;100736.03;2520381;23;20682;-65
2023/08/03 01:21:31;;;;;;;7.03;6.30;;;;;;;22.30;100.00;100754.56;2521232;23;20159;-65
2023/08/03 01:22:39;;;;;;;6.47;5.87;;;;;;;22.12;100.00;100704.22;2521112;23;20155;-65
2023/08/03 01:23:40;;;;;;;6.90;6.30;;;;;;;22.34;100.00;100746.63;2521000;23;20162;-64
2023/08/03 01:24:40;;;;;;;7.50;6.43;;;;;;;22.24;100.00;100725.53;2520888;23;20151;-65
2023/08/03 01:25:41;;;;;;;7.80;5.87;;;;;;;22.19;100.00;100719.88;2508180;23;20215;-64
2023/08/03 01:26:42;;;;;;;7.53;6.83;;;;;;;22.38;100.00;100749.19;2496200;23;20176;-65
2023/08/03 01:27:46;;;;;;;7.60;6.20;;;;;;;22.42;100.00;100750.47;2507879;23;20215;-64
2023/08/03 01:28:47;;;;;;;9.00;5.60;;;;;;;22.42;100.00;100750.47;2520136;23;20497;-65
2023/08/03 01:29:47;;;;;;;6.83;5.63;;;;;;;22.39;100.00;100733.78;2520130;23;20151;-64
2023/08/03 01:30:48;;;;;;;6.83;6.13;;;;;;;22.06;100.00;100689.31;2520283;23;20258;-64
2023/08/03 01:31:54;;;;;;;7.37;5.87;;;;;;;22.39;100.00;100726.09;2520805;23;20152;-64
2023/08/03 01:32:54;;;;;;;7.77;6.10;;;;;;;22.52;100.00;100748.22;2520906;23;20149;-64
2023/08/03 01:33:55;;;;;;;6.30;5.70;;;;;;;22.52;100.00;100746.16;2520269;23;20169;-65
2023/08/03 01:34:56;;;;;;;6.70;6.10;;;;;;;22.48;100.00;100737.19;2520865;23;20177;-64
2023/08/03 01:35:57;;;;;;;7.67;6.20;;;;;;;22.20;100.00;100708.06;2521038;23;20159;-64
2023/08/03 01:36:57;;;;;;;6.60;5.70;;;;;;;22.50;100.00;100743.06;2520870;23;20155;-64
2023/08/03 01:37:57;;;;;;;6.63;5.93;;;;;;;22.46;100.00;100739.72;2520196;23;20609;-65
2023/08/03 01:39:06;;;;;;;6.63;6.03;;;;;;;22.45;100.00;100737.41;2520873;23;20501;-64
2023/08/03 01:40:08;;;;;;;6.63;6.03;;;;;;;22.45;100.00;100749.47;2520369;23;20242;-64
2023/08/03 01:41:08;;;;;;;8.73;6.57;;;;;;;22.43;100.00;100740.72;2520278;23;20226;-64
2023/08/03 01:42:08;;;;;;;9.33;5.90;;;;;;;22.44;100.00;100739.47;2520961;23;20618;-65
2023/08/03 01:43:09;;;;;;;7.13;6.37;;;;;;;22.17;100.00;100700.66;2520241;23;20565;-64
2023/08/03 01:44:30;;;;;;;6.53;5.80;;;;;;;22.09;100.00;100696.78;2508074;23;20156;-64
2023/08/03 01:45:31;;;;;;;7.93;6.30;;;;;;;22.50;100.00;100754.38;2512371;23;20146;-65
2023/08/03 01:46:31;;;;;;;7.03;6.33;;;;;;;22.48;100.00;100756.94;2520829;23;20151;-65
2023/08/03 01:47:32;;;;;;;8.37;6.53;;;;;;;22.50;100.00;100760.00;2520229;23;20711;-66
2023/08/03 01:48:32;;;;;;;6.93;6.23;;;;;;;22.51;100.00;100755.16;2520883;23;20542;-64
2023/08/03 01:49:34;;;;;;;7.00;6.33;;;;;;;22.34;100.00;100740.97;2520780;23;20158;-64
2023/08/03 01:50:35;;;;;;;8.63;6.80;;;;;;;22.02;100.00;100693.66;2519681;23;20238;-64
2023/08/03 01:51:36;;;;;;;7.67;6.87;;;;;;;21.97;100.00;100689.56;2520814;23;20151;-64
2023/08/03 01:52:36;;;;;;;7.13;6.43;;;;;;;22.47;100.00;100754.63;2520952;23;20597;-64
2023/08/03 01:53:37;;;;;;;7.53;6.67;;;;;;;22.36;100.00;100760.22;2520426;23;20581;-64
2023/08/03 01:54:37;;;;;;;7.30;6.60;;;;;;;22.34;100.00;100760.72;2520992;23;20155;-65
2023/08/03 01:55:37;;;;;;;7.57;6.87;;;;;;;21.77;100.00;100672.84;2520888;23;20233;-65
2023/08/03 01:56:38;;;;;;;7.30;6.60;;;;;;;22.22;100.00;100750.66;2520244;23;20155;-65
2023/08/03 01:57:38;;;;;;;8.80;7.10;;;;;;;21.85;100.00;100695.69;2519577;23;20166;-64
2023/08/03 01:58:39;;;;;;;10.70;6.87;;;;;;;22.29;100.00;100763.53;2520790;23;20151;-65
2023/08/03 01:59:39;;;;;;;7.70;6.90;;;;;;;22.29;100.00;100767.13;2520738;23;20151;-64
2023/08/03 02:00:40;;;;;;;9.03;7.40;;;;;;;22.29;100.00;100755.06;2519834;23;20238;-64
2023/08/03 02:01:40;;;;;;;8.77;7.33;;;;;;;22.17;100.00;100745.03;2520757;23;20158;-64
2023/08/03 02:02:40;;;;;;;7.20;6.40;;;;;;;22.28;100.00;100762.00;2520805;23;20202;-64
2023/08/03 02:03:41;;;;;;;8.60;6.70;;;;;;;22.16;100.00;100741.41;2520537;23;20179;-64
2023/08/03 02:04:41;;;;;;;7.80;7.00;;;;;;;22.24;100.00;100753.78;2520840;23;20171;-64
2023/08/03 02:05:42;;;;;;;8.00;7.20;;;;;;;21.84;100.00;100691.28;2507916;23;20238;-65
2023/08/03 02:06:46;;;;;;;8.27;6.97;;;;;;;22.11;100.00;100724.50;2508238;23;20182;-64
2023/08/03 02:07:55;;;;;;;8.10;6.47;;;;;;;21.84;100.00;100682.84;2520091;23;20629;-64
2023/08/03 02:08:55;;;;;;;8.50;7.00;;;;;;;22.36;100.00;100760.22;2520920;23;20159;-64
2023/08/03 02:09:56;;;;;;;7.40;6.70;;;;;;;22.15;100.00;100733.47;2520232;23;20155;-64
2023/08/03 02:10:56;;;;;;;10.13;7.00;;;;;;;22.34;100.00;100754.31;2519973;23;20155;-65
2023/08/03 02:11:56;;;;;;;7.50;6.80;;;;;;;22.31;100.00;100750.44;2519827;23;20159;-65
2023/08/03 02:12:57;;;;;;;7.73;6.90;;;;;;;22.29;100.00;100747.38;2520719;23;20159;-65
2023/08/03 02:13:57;;;;;;;8.03;7.23;;;;;;;22.29;100.00;100750.19;2520315;23;20163;-64
2023/08/03 02:14:58;;;;;;;7.30;6.60;;;;;;;22.27;100.00;100747.09;2520762;23;20150;-65
2023/08/03 02:16:01;;;;;;;6.83;6.23;;;;;;;22.11;100.00;100728.06;2520667;23;20156;-65
2023/08/03 02:17:01;;;;;;;7.60;6.90;;;;;;;22.22;100.00;100747.84;2520667;23;20201;-65
2023/08/03 02:18:02;;;;;;;9.47;6.77;;;;;;;22.23;100.00;100749.41;2520198;23;20207;-64
2023/08/03 02:19:02;;;;;;;7.60;6.90;;;;;;;21.86;100.00;100686.69;2520821;23;20549;-65
2023/08/03 02:20:03;;;;;;;7.47;6.77;;;;;;;22.25;100.00;100749.66;2508119;23;20499;-65
2023/08/03 02:21:03;;;;;;;7.80;6.60;;;;;;;22.29;100.00;100753.03;2507152;23;20263;-64
2023/08/03 02:22:04;;;;;;;11.60;7.23;;;;;;;22.10;100.00;100720.13;2520700;23;20206;-65
2023/08/03 02:23:04;;;;;;;7.83;7.03;;;;;;;22.30;100.00;100754.56;2520650;23;20173;-64
2023/08/03 02:24:05;;;;;;;8.80;6.90;;;;;;;21.93;100.00;100693.91;2520825;23;20183;-66
2023/08/03 02:25:06;;;;;;;8.10;7.30;;;;;;;22.29;100.00;100738.13;2520807;23;20653;-64
2023/08/03 02:26:08;;;;;;;7.77;6.97;;;;;;;22.27;100.00;100743.50;2520112;23;20533;-64
2023/08/03 02:27:08;;;;;;;7.27;6.57;;;;;;;22.33;100.00;100747.91;2507843;23;20188;-64
2023/08/03 02:28:09;;;;;;;7.07;6.47;;;;;;;22.29;100.00;100758.66;2507751;23;20671;-64
2023/08/03 02:29:09;;;;;;;7.50;6.80;;;;;;;22.32;100.00;100742.75;2507808;23;20167;-65
2023/08/03 02:30:10;;;;;;;7.77;6.97;;;;;;;22.32;100.00;100754.06;2507734;23;20528;-65
2023/08/03 02:31:10;;;;;;;7.87;6.73;;;;;;;22.40;100.00;100763.53;2519908;23;20207;-65
2023/08/03 02:32:11;;;;;;;7.87;6.50;;;;;;;21.66;100.00;100655.06;2520562;23;20182;-64
2023/08/03 02:33:11;;;;;;;7.33;6.50;;;;;;;22.19;100.00;100731.94;2520563;23;20175;-65
2023/08/03 02:34:11;;;;;;;7.30;6.70;;;;;;;22.40;100.00;100761.50;2519874;23;20181;-65
2023/08/03 02:35:12;;;;;;;7.80;6.70;;;;;;;21.77;100.00;100667.19;2520561;23;20210;-64
2023/08/03 02:36:13;;;;;;;7.10;6.40;;;;;;;22.44;100.00;100756.41;2520733;23;20230;-65
2023/08/03 02:37:13;;;;;;;6.67;5.97;;;;;;;22.43;100.00;100756.88;2520723;23;20147;-64
2023/08/03 02:38:13;;;;;;;7.60;6.40;;;;;;;22.41;100.00;100759.47;2520091;23;20617;-64
2023/08/03 02:39:14;;;;;;;7.50;6.70;;;;;;;21.86;100.00;100666.19;2520517;23;20155;-64
2023/08/03 02:40:14;;;;;;;6.70;6.10;;;;;;;22.38;100.00;100752.78;2519911;23;20147;-65
2023/08/03 02:41:15;;;;;;;8.20;7.20;;;;;;;22.32;100.00;100757.63;2519365;23;20757;-64
2023/08/03 02:42:15;;;;;;;7.50;6.80;;;;;;;22.26;100.00;100758.91;2520523;23;20472;-64
2023/08/03 02:43:15;;;;;;;7.93;6.87;;;;;;;22.03;100.00;100717.78;2520548;23;20177;-65
2023/08/03 02:44:16;;;;;;;7.67;6.87;;;;;;;22.30;100.00;100750.94;2520794;23;20567;-64
2023/08/03 02:45:16;;;;;;;8.30;7.00;;;;;;;22.33;100.00;100741.47;2520795;23;20442;-64
2023/08/03 02:46:17;;;;;;;8.30;6.90;;;;;;;22.29;100.00;100738.91;2520435;23;20505;-65
2023/08/03 02:47:17;;;;;;;7.47;6.70;;;;;;;22.10;100.00;100720.13;2507216;23;20301;-64
2023/08/03 02:48:17;;;;;;;7.73;6.93;;;;;;;22.39;100.00;100762.00;2507951;23;20222;-64
2023/08/03 02:49:18;;;;;;;7.40;6.70;;;;;;;22.40;100.00;100764.34;2520572;23;20508;-65
2023/08/03 02:50:18;;;;;;;8.57;6.37;;;;;;;22.42;100.00;100772.28;2519865;23;20155;-64
2023/08/03 02:51:18;;;;;;;8.40;6.60;;;;;;;22.45;100.00;100769.25;2519949;23;20155;-64
2023/08/03 02:52:19;;;;;;;7.53;6.67;;;;;;;22.45;100.00;100765.63;2520163;23;20155;-65
2023/08/03 02:53:19;;;;;;;6.97;6.27;;;;;;;21.83;100.00;100676.44;2507716;23;20200;-64
2023/08/03 02:54:20;;;;;;;7.83;6.50;;;;;;;22.49;100.00;100766.94;2507940;23;20560;-65
2023/08/03 02:55:20;;;;;;;9.27;7.20;;;;;;;22.52;100.00;100765.16;2506801;23;20163;-65
2023/08/03 02:56:20;;;;;;;7.93;6.47;;;;;;;22.54;100.00;100760.53;2508008;23;20159;-65
2023/08/03 02:57:21;;;;;;;8.97;7.10;;;;;;;21.50;100.00;100605.78;2507606;23;20184;-64
2023/08/03 02:58:21;;;;;;;11.40;6.87;;;;;;;22.25;100.00;100721.44;2507740;23;20152;-65
2023/08/03 02:59:22;;;;;;;9.33;7.03;;;;;;;22.49;100.00;100766.16;2508145;23;20170;-65
2023/08/03 03:00:22;;;;;;;12.23;7.47;;;;;;;22.50;100.00;100764.88;2508159;23;20155;-65
2023/08/03 03:01:22;;;;;;;10.90;7.47;;;;;;;22.48;100.00;100768.25;2508135;23;20602;-64
2023/08/03 03:02:23;;;;;;;8.83;6.53;;;;;;;22.31;100.00;100750.44;2508595;23;20226;-64
2023/08/03 03:03:23;;;;;;;6.67;5.50;;;;;;;22.36;100.00;100771.53;2508593;23;20194;-65
2023/08/03 03:04:24;;;;;;;13.07;6.50;;;;;;;22.21;100.00;100756.84;2508763;23;20210;-64
2023/08/03 03:05:24;;;;;;;8.00;6.20;;;;;;;22.11;100.00;100730.88;2508024;23;20240;-65
2023/08/03 03:06:24;;;;;;;8.03;5.90;;;;;;;22.28;100.00;100768.41;2507639;23;20155;-65
2023/08/03 03:07:25;;;;;;;7.33;6.60;;;;;;;22.17;100.00;100759.13;2507218;23;20483;-65
2023/08/03 03:08:25;;;;;;;8.33;5.90;;;;;;;22.19;100.00;100762.22;2508780;23;20151;-65
2023/08/03 03:09:26;;;;;;;7.87;6.57;;;;;;;21.83;100.00;100709.50;2508259;23;20151;-64
2023/08/03 03:10:26;;;;;;;8.10;6.10;;;;;;;22.15;100.00;100758.88;2506853;23;20164;-65
2023/08/03 03:11:26;;;;;;;7.87;6.70;;;;;;;21.96;100.00;100735.22;2507597;23;20160;-65
2023/08/03 03:12:27;;;;;;;9.77;6.43;;;;;;;21.51;100.00;100674.22;2508828;23;20159;-65
2023/08/03 03:13:27;;;;;;;10.37;6.30;;;;;;;22.08;100.00;100762.19;2508174;23;20223;-65
2023/08/03 03:14:28;;;;;;;9.30;6.77;;;;;;;21.72;100.00;100715.09;2508453;23;20180;-64
2023/08/03 03:15:28;;;;;;;11.67;6.67;;;;;;;22.06;100.00;100767.56;2508661;23;20185;-65
2023/08/03 03:16:28;;;;;;;18.20;7.33;;;;;;;22.05;100.00;100780.16;2508385;23;20215;-64
2023/08/03 03:17:29;;;;;;;13.90;7.33;;;;;;;22.00;100.00;100769.59;2508587;23;20172;-65
2023/08/03 03:18:29;;;;;;;12.80;7.10;;;;;;;21.95;100.00;100771.13;2508719;23;20158;-65
2023/08/03 03:19:30;;;;;;;10.23;6.80;;;;;;;21.98;100.00;100769.31;2508841;23;20222;-65
2023/08/03 03:20:30;;;;;;;7.33;6.63;;;;;;;21.80;100.00;100750.78;2507545;23;20765;-65
2023/08/03 03:21:30;;;;;;;10.07;6.80;;;;;;;21.93;100.00;100781.38;2508661;23;20487;-64
2023/08/03 03:22:31;;;;;;;7.27;6.57;;;;;;;21.77;100.00;100760.28;2508441;23;20160;-64
2023/08/03 03:23:31;;;;;;;7.10;6.17;;;;;;;21.82;100.00;100770.81;2508113;23;20234;-65
2023/08/03 03:24:31;;;;;;;10.40;6.73;;;;;;;21.35;100.00;100697.47;2508749;23;20155;-64
2023/08/03 03:25:32;;;;;;;7.53;6.43;;;;;;;21.47;100.00;100713.16;2508925;23;20493;-65
2023/08/03 03:26:32;;;;;;;9.80;7.13;;;;;;;21.92;100.00;100788.28;2508535;23;20164;-65
2023/08/03 03:27:33;;;;;;;8.37;6.97;;;;;;;21.90;100.00;100794.44;2507403;23;20207;-64
2023/08/03 03:28:33;;;;;;;10.13;7.13;;;;;;;21.90;100.00;100790.84;2507921;23;20293;-65
2023/08/03 03:29:33;;;;;;;8.43;6.90;;;;;;;21.86;100.00;100785.44;2508736;23;20156;-64
2023/08/03 03:30:34;;;;;;;7.80;6.93;;;;;;;21.86;100.00;100793.91;2507498;23;20218;-65
2023/08/03 03:31:34;;;;;;;10.43;7.83;;;;;;;21.90;100.00;100796.50;2508164;23;20160;-64
2023/08/03 03:32:35;;;;;;;8.37;7.27;;;;;;;21.96;100.00;100802.94;2508499;23;20156;-64
2023/08/03 03:33:35;;;;;;;8.33;7.43;;;;;;;21.97;100.00;100802.44;2508564;23;20603;-64
2023/08/03 03:34:35;;;;;;;8.90;7.67;;;;;;;21.97;100.00;100805.25;2508341;23;20573;-64
2023/08/03 03:35:36;;;;;;;8.53;7.60;;;;;;;21.72;100.00;100772.31;2508693;23;20155;-65
2023/08/03 03:36:36;;;;;;;8.90;7.20;;;;;;;21.96;100.00;100803.69;2508362;23;20182;-64
2023/08/03 03:37:37;;;;;;;10.73;7.87;;;;;;;21.97;100.00;100805.25;2507541;23;20151;-64
2023/08/03 03:38:37;;;;;;;10.93;8.20;;;;;;;21.57;100.00;100751.16;2508274;23;20179;-64
2023/08/03 03:39:37;;;;;;;9.43;7.87;;;;;;;21.95;100.00;100799.34;2508711;23;20178;-65
2023/08/03 03:40:38;;;;;;;10.30;7.77;;;;;;;21.85;100.00;100800.06;2507447;23;20354;-64
2023/08/03 03:41:38;;;;;;;9.17;7.73;;;;;;;21.85;100.00;100817.75;2508277;23;20156;-64
2023/08/03 03:42:39;;;;;;;8.87;7.93;;;;;;;21.85;100.00;100809.28;2508938;23;20534;-65
2023/08/03 03:43:39;;;;;;;13.43;8.70;;;;;;;21.88;100.00;100821.59;2508395;23;20166;-64
2023/08/03 03:44:39;;;;;;;9.27;7.83;;;;;;;21.89;100.00;100809.81;2507755;23;20155;-64
2023/08/03 03:45:40;;;;;;;12.77;7.60;;;;;;;21.77;100.00;100794.13;2507882;23;20184;-64
2023/08/03 03:46:40;;;;;;;11.07;7.93;;;;;;;21.84;100.00;100810.56;2508745;23;20211;-64
2023/08/03 03:47:41;;;;;;;11.70;7.63;;;;;;;21.80;100.00;100806.44;2507954;23;20529;-65
2023/08/03 03:48:41;;;;;;;10.30;7.77;;;;;;;21.88;100.00;100830.84;2508536;23;20174;-64
2023/08/03 03:49:42;;;;;;;11.40;7.73;;;;;;;21.84;100.00;100816.22;2508347;23;20166;-64
2023/08/03 03:50:42;;;;;;;9.73;7.73;;;;;;;21.35;100.00;100757.44;2507710;23;20186;-64
2023/08/03 03:51:43;;;;;;;11.33;7.50;;;;;;;21.77;100.00;100822.34;2508023;23;20183;-65
2023/08/03 03:52:43;;;;;;;14.77;8.77;;;;;;;21.77;100.00;100822.34;2507632;23;20160;-64
2023/08/03 03:53:43;;;;;;;17.23;8.33;;;;;;;21.78;100.00;100820.28;2519330;23;20203;-64
2023/08/03 03:54:44;;;;;;;13.33;8.80;;;;;;;21.44;100.00;100771.34;2507612;23;20155;-64
2023/08/03 03:55:44;;;;;;;12.60;8.50;;;;;;;21.18;100.00;100728.38;2507801;23;20243;-65
2023/08/03 03:56:45;;;;;;;9.27;7.43;;;;;;;21.51;100.00;100770.09;2520233;23;20237;-64
2023/08/03 03:57:45;;;;;;;13.07;8.13;;;;;;;21.83;100.00;100816.72;2519873;23;20185;-65
2023/08/03 03:58:46;;;;;;;11.20;7.97;;;;;;;21.84;100.00;100819.03;2507824;23;20159;-64
2023/08/03 03:59:46;;;;;;;13.70;8.60;;;;;;;21.88;100.00;100825.22;2507883;23;20156;-64
2023/08/03 04:00:46;;;;;;;11.30;7.90;;;;;;;21.93;100.00;100823.69;2519400;23;20151;-64
2023/08/03 04:01:47;;;;;;;11.43;7.57;;;;;;;21.94;100.00;100826.00;2520219;23;20155;-64
2023/08/03 04:02:49;;;;;;;11.20;7.73;;;;;;;21.48;100.00;100743.69;2520097;23;20185;-64
2023/08/03 04:03:49;;;;;;;14.37;7.90;;;;;;;21.58;100.00;100763.97;2520273;23;20529;-64
2023/08/03 04:04:49;;;;;;;11.83;8.17;;;;;;;22.01;100.00;100824.75;2507400;23;20239;-64
2023/08/03 04:05:50;;;;;;;10.67;8.17;;;;;;;21.96;100.00;100814.97;2507925;23;20183;-65
2023/08/03 04:06:50;;;;;;;11.27;7.97;;;;;;;21.73;100.00;100775.88;2519870;23;20155;-64
2023/08/03 04:07:50;;;;;;;10.53;7.77;;;;;;;22.07;100.00;100825.56;2519914;23;20159;-64
2023/08/03 04:08:51;;;;;;;10.80;7.60;;;;;;;22.10;100.00;100825.31;2520440;23;20564;-64
2023/08/03 04:09:51;;;;;;;9.80;7.03;;;;;;;22.13;100.00;100823.53;2520186;23;20502;-65
2023/08/03 04:10:52;;;;;;;12.50;7.73;;;;;;;22.16;100.00;100831.00;2519321;23;20470;-65
2023/08/03 04:11:52;;;;;;;10.40;7.73;;;;;;;21.62;100.00;100753.22;2520222;23;20617;-64
2023/08/03 04:12:52;;;;;;;8.43;7.57;;;;;;;22.24;100.00;100837.69;2520103;23;20155;-64
2023/08/03 04:13:53;;;;;;;11.17;8.53;;;;;;;22.28;100.00;100839.00;2520088;23;20512;-64
2023/08/03 04:14:53;;;;;;;13.50;7.97;;;;;;;22.32;100.00;100839.50;2520387;23;20151;-64
2023/08/03 04:15:54;;;;;;;9.07;7.93;;;;;;;22.38;100.00;100845.19;2520119;23;20179;-65
2023/08/03 04:16:54;;;;;;;10.67;8.17;;;;;;;21.74;100.00;100754.88;2520267;23;20151;-65
2023/08/03 04:17:54;;;;;;;10.93;7.77;;;;;;;22.39;100.00;100841.06;2519743;23;20159;-64
2023/08/03 04:18:55;;;;;;;9.87;8.23;;;;;;;22.37;100.00;100838.75;2520689;23;20151;-65
2023/08/03 04:19:55;;;;;;;9.87;8.67;;;;;;;22.49;100.00;100851.69;2520294;23;20164;-64
2023/08/03 04:20:55;;;;;;;8.90;7.97;;;;;;;22.55;100.00;100860.16;2519041;23;20178;-65
2023/08/03 04:21:56;;;;;;;9.53;8.00;;;;;;;22.59;100.00;100853.00;2520295;23;20155;-64
2023/08/03 04:22:56;;;;;;;8.83;7.93;;;;;;;22.63;100.00;100856.31;2520163;23;20151;-65
2023/08/03 04:23:57;;;;;;;8.83;7.93;;;;;;;22.67;100.00;100856.09;2520220;23;20640;-65
2023/08/03 04:24:57;;;;;;;11.33;7.97;;;;;;;22.73;100.00;100856.88;2520150;23;20207;-65
2023/08/03 04:25:57;;;;;;;12.20;7.90;;;;;;;22.75;100.00;100857.13;2520144;23;20190;-65
2023/08/03 04:26:58;;;;;;;9.63;7.97;;;;;;;22.38;100.00;100812.09;2520181;23;20159;-64
2023/08/03 04:27:58;;;;;;;12.03;8.33;;;;;;;22.78;100.00;100854.03;2519721;23;20151;-65
2023/08/03 04:28:59;;;;;;;11.57;8.00;;;;;;;22.84;100.00;100859.72;2519263;23;20183;-64
2023/08/03 04:29:59;;;;;;;11.70;8.20;;;;;;;22.91;100.00;100862.03;2519587;23;20151;-65
2023/08/03 04:30:59;;;;;;;12.90;8.07;;;;;;;22.96;100.00;100861.25;2519361;23;20199;-64
2023/08/03 04:32:00;;;;;;;12.93;8.50;;;;;;;23.01;100.00;100868.97;2520457;23;20191;-65
2023/08/03 04:33:00;;;;;;;12.50;9.80;;;;;;;23.06;100.00;100869.00;2520039;23;20238;-65
2023/08/03 04:34:01;;;;;;;10.93;8.57;;;;;;;23.09;100.00;100861.53;2520292;23;20159;-65
2023/08/03 04:35:01;;;;;;;11.30;8.27;;;;;;;23.12;100.00;100866.94;2519894;23;20158;-65
2023/08/03 04:36:01;;;;;;;10.70;8.50;;;;;;;23.16;100.00;100867.47;2520161;23;20155;-65
2023/08/03 04:37:02;;;;;;;8.47;7.20;;;;;;;23.16;100.00;100864.63;2507641;23;20194;-65
2023/08/03 04:38:03;;;;;;;15.73;7.60;;;;;;;22.92;100.00;100835.34;2503778;23;20166;-65